sensor_id;sensor_type;location;lat;lon;timestamp;P1;durP1;ratioP1;P2;durP2;ratioP2
34988;SDS011;21192;40.182;44.516;2023-05-13T00:01:27;23.45;;;9.82;;
34988;SDS011;21192;40.182;44.516;2023-05-13T00:03:53;25.58;;;9.40;;
34988;SDS011;21192;40.182;44.516;2023-05-13T00:06:19;23.23;;;8.60;;
34988;SDS011;21192;40.182;44.516;2023-05-13T00:08:45;19.98;;;8.70;;
34988;SDS011;21192;40.182;44.516;2023-05-13T00:11:11;20.15;;;8.05;;
34988;SDS011;21192;40.182;44.516;2023-05-13T00:13:37;23.08;;;8.50;;
34988;SDS011;21192;40.182;44.516;2023-05-13T00:16:03;19.13;;;7.97;;
34988;SDS011;21192;40.182;44.516;2023-05-13T00:18:29;20.40;;;7.38;;
34988;SDS011;21192;40.182;44.516;2023-05-13T00:20:54;19.45;;;8.05;;
34988;SDS011;21192;40.182;44.516;2023-05-13T00:23:20;20.27;;;8.57;;
34988;SDS011;21192;40.182;44.516;2023-05-13T00:25:46;18.13;;;7.72;;
34988;SDS011;21192;40.182;44.516;2023-05-13T00:28:12;23.73;;;8.23;;
34988;SDS011;21192;40.182;44.516;2023-05-13T00:30:40;24.10;;;8.23;;
34988;SDS011;21192;40.182;44.516;2023-05-13T00:33:07;20.55;;;7.95;;
34988;SDS011;21192;40.182;44.516;2023-05-13T00:35:33;15.93;;;7.53;;
34988;SDS011;21192;40.182;44.516;2023-05-13T00:37:59;21.90;;;8.07;;
34988;SDS011;21192;40.182;44.516;2023-05-13T00:40:25;19.35;;;7.85;;
34988;SDS011;21192;40.182;44.516;2023-05-13T00:42:52;19.67;;;7.28;;
34988;SDS011;21192;40.182;44.516;2023-05-13T00:45:18;18.95;;;8.07;;
34988;SDS011;21192;40.182;44.516;2023-05-13T00:47:44;17.85;;;7.93;;
34988;SDS011;21192;40.182;44.516;2023-05-13T00:50:11;19.42;;;9.13;;
34988;SDS011;21192;40.182;44.516;2023-05-13T00:52:38;22.38;;;8.65;;
34988;SDS011;21192;40.182;44.516;2023-05-13T00:55:05;20.63;;;7.88;;
34988;SDS011;21192;40.182;44.516;2023-05-13T00:57:32;22.25;;;7.57;;
34988;SDS011;21192;40.182;44.516;2023-05-13T00:59:59;18.77;;;6.70;;
34988;SDS011;21192;40.182;44.516;2023-05-13T01:07:52;14.38;;;5.40;;
34988;SDS011;21192;40.182;44.516;2023-05-13T01:10:33;19.45;;;5.72;;
34988;SDS011;21192;40.182;44.516;2023-05-13T01:13:01;22.80;;;6.50;;
34988;SDS011;21192;40.182;44.516;2023-05-13T01:15:32;19.42;;;5.70;;
34988;SDS011;21192;40.182;44.516;2023-05-13T01:20:41;20.25;;;5.75;;
34988;SDS011;21192;40.182;44.516;2023-05-13T01:23:10;18.65;;;4.47;;
34988;SDS011;21192;40.182;44.516;2023-05-13T01:25:37;19.95;;;5.40;;
34988;SDS011;21192;40.182;44.516;2023-05-13T01:28:04;17.30;;;4.32;;
34988;SDS011;21192;40.182;44.516;2023-05-13T01:30:31;14.35;;;4.22;;
34988;SDS011;21192;40.182;44.516;2023-05-13T01:32:57;12.52;;;3.95;;
34988;SDS011;21192;40.182;44.516;2023-05-13T01:35:24;17.38;;;3.88;;
34988;SDS011;21192;40.182;44.516;2023-05-13T01:37:53;11.75;;;3.65;;
34988;SDS011;21192;40.182;44.516;2023-05-13T01:40:21;11.00;;;3.83;;
34988;SDS011;21192;40.182;44.516;2023-05-13T01:42:47;13.68;;;4.00;;
34988;SDS011;21192;40.182;44.516;2023-05-13T01:45:13;15.85;;;4.00;;
34988;SDS011;21192;40.182;44.516;2023-05-13T01:47:39;9.52;;;3.50;;
34988;SDS011;21192;40.182;44.516;2023-05-13T01:50:06;15.02;;;4.00;;
34988;SDS011;21192;40.182;44.516;2023-05-13T01:52:32;18.85;;;4.28;;
34988;SDS011;21192;40.182;44.516;2023-05-13T01:54:58;13.95;;;4.03;;
34988;SDS011;21192;40.182;44.516;2023-05-13T01:57:24;16.85;;;4.32;;
34988;SDS011;21192;40.182;44.516;2023-05-13T01:59:50;13.10;;;4.10;;
34988;SDS011;21192;40.182;44.516;2023-05-13T02:02:17;14.38;;;4.70;;
34988;SDS011;21192;40.182;44.516;2023-05-13T02:04:43;24.45;;;4.90;;
34988;SDS011;21192;40.182;44.516;2023-05-13T02:07:08;17.73;;;5.28;;
34988;SDS011;21192;40.182;44.516;2023-05-13T02:09:34;22.38;;;5.80;;
34988;SDS011;21192;40.182;44.516;2023-05-13T02:12:00;21.42;;;5.93;;
34988;SDS011;21192;40.182;44.516;2023-05-13T02:14:26;18.05;;;6.22;;
34988;SDS011;21192;40.182;44.516;2023-05-13T02:16:52;20.38;;;6.15;;
34988;SDS011;21192;40.182;44.516;2023-05-13T02:19:18;21.95;;;5.93;;
34988;SDS011;21192;40.182;44.516;2023-05-13T02:21:44;22.10;;;6.45;;
34988;SDS011;21192;40.182;44.516;2023-05-13T02:24:10;20.60;;;6.32;;
34988;SDS011;21192;40.182;44.516;2023-05-13T02:26:36;21.63;;;5.45;;
34988;SDS011;21192;40.182;44.516;2023-05-13T02:29:02;20.02;;;6.35;;
34988;SDS011;21192;40.182;44.516;2023-05-13T02:31:28;17.20;;;5.88;;
34988;SDS011;21192;40.182;44.516;2023-05-13T02:33:53;25.25;;;6.93;;
34988;SDS011;21192;40.182;44.516;2023-05-13T02:36:19;14.93;;;5.38;;
34988;SDS011;21192;40.182;44.516;2023-05-13T02:38:45;15.68;;;5.22;;
34988;SDS011;21192;40.182;44.516;2023-05-13T02:41:11;17.45;;;4.75;;
34988;SDS011;21192;40.182;44.516;2023-05-13T02:43:36;19.40;;;5.30;;
34988;SDS011;21192;40.182;44.516;2023-05-13T02:46:02;19.10;;;4.60;;
34988;SDS011;21192;40.182;44.516;2023-05-13T02:48:28;19.63;;;4.18;;
34988;SDS011;21192;40.182;44.516;2023-05-13T02:50:54;12.15;;;3.78;;
34988;SDS011;21192;40.182;44.516;2023-05-13T02:53:20;13.13;;;4.15;;
34988;SDS011;21192;40.182;44.516;2023-05-13T02:55:46;19.45;;;3.72;;
34988;SDS011;21192;40.182;44.516;2023-05-13T02:58:11;16.65;;;5.03;;
34988;SDS011;21192;40.182;44.516;2023-05-13T03:00:37;20.73;;;4.35;;
34988;SDS011;21192;40.182;44.516;2023-05-13T03:03:03;21.88;;;4.70;;
34988;SDS011;21192;40.182;44.516;2023-05-13T03:05:29;21.67;;;5.40;;
34988;SDS011;21192;40.182;44.516;2023-05-13T03:07:55;15.77;;;5.32;;
34988;SDS011;21192;40.182;44.516;2023-05-13T03:10:22;20.65;;;6.63;;
34988;SDS011;21192;40.182;44.516;2023-05-13T03:12:47;18.25;;;6.80;;
34988;SDS011;21192;40.182;44.516;2023-05-13T03:15:14;22.48;;;8.13;;
34988;SDS011;21192;40.182;44.516;2023-05-13T03:17:40;23.75;;;8.57;;
34988;SDS011;21192;40.182;44.516;2023-05-13T03:20:06;24.80;;;9.02;;
34988;SDS011;21192;40.182;44.516;2023-05-13T03:22:32;23.83;;;8.20;;
34988;SDS011;21192;40.182;44.516;2023-05-13T03:24:58;18.98;;;7.90;;
34988;SDS011;21192;40.182;44.516;2023-05-13T03:27:24;22.45;;;7.80;;
34988;SDS011;21192;40.182;44.516;2023-05-13T03:29:50;21.33;;;7.50;;
34988;SDS011;21192;40.182;44.516;2023-05-13T03:32:16;15.40;;;6.13;;
34988;SDS011;21192;40.182;44.516;2023-05-13T03:34:41;16.80;;;7.40;;
34988;SDS011;21192;40.182;44.516;2023-05-13T03:37:07;21.15;;;7.28;;
34988;SDS011;21192;40.182;44.516;2023-05-13T03:39:34;16.48;;;7.32;;
34988;SDS011;21192;40.182;44.516;2023-05-13T03:42:00;14.68;;;6.05;;
34988;SDS011;21192;40.182;44.516;2023-05-13T03:44:26;16.08;;;5.85;;
34988;SDS011;21192;40.182;44.516;2023-05-13T03:46:52;17.17;;;6.70;;
34988;SDS011;21192;40.182;44.516;2023-05-13T03:49:18;14.70;;;5.65;;
34988;SDS011;21192;40.182;44.516;2023-05-13T03:51:44;18.30;;;6.78;;
34988;SDS011;21192;40.182;44.516;2023-05-13T03:54:10;18.08;;;6.68;;
34988;SDS011;21192;40.182;44.516;2023-05-13T03:56:35;22.48;;;7.18;;
34988;SDS011;21192;40.182;44.516;2023-05-13T03:59:01;18.35;;;6.72;;
34988;SDS011;21192;40.182;44.516;2023-05-13T04:01:28;19.58;;;7.75;;
34988;SDS011;21192;40.182;44.516;2023-05-13T04:03:54;21.92;;;7.57;;
34988;SDS011;21192;40.182;44.516;2023-05-13T04:06:20;24.88;;;8.65;;
34988;SDS011;21192;40.182;44.516;2023-05-13T04:08:45;22.08;;;8.07;;
34988;SDS011;21192;40.182;44.516;2023-05-13T04:11:13;22.60;;;8.70;;
34988;SDS011;21192;40.182;44.516;2023-05-13T04:13:39;26.58;;;8.23;;
34988;SDS011;21192;40.182;44.516;2023-05-13T04:16:05;25.83;;;8.13;;
34988;SDS011;21192;40.182;44.516;2023-05-13T04:18:32;23.60;;;8.38;;
34988;SDS011;21192;40.182;44.516;2023-05-13T04:20:58;27.33;;;7.72;;
34988;SDS011;21192;40.182;44.516;2023-05-13T04:23:23;22.65;;;8.80;;
34988;SDS011;21192;40.182;44.516;2023-05-13T04:25:50;24.52;;;8.23;;
34988;SDS011;21192;40.182;44.516;2023-05-13T04:28:16;23.85;;;8.85;;
34988;SDS011;21192;40.182;44.516;2023-05-13T04:30:43;30.05;;;8.30;;
34988;SDS011;21192;40.182;44.516;2023-05-13T04:33:09;21.83;;;8.80;;
34988;SDS011;21192;40.182;44.516;2023-05-13T04:35:34;25.13;;;8.68;;
34988;SDS011;21192;40.182;44.516;2023-05-13T04:38:00;31.13;;;9.35;;
34988;SDS011;21192;40.182;44.516;2023-05-13T04:40:26;28.67;;;9.82;;
34988;SDS011;21192;40.182;44.516;2023-05-13T04:42:52;39.55;;;9.35;;
34988;SDS011;21192;40.182;44.516;2023-05-13T04:45:19;31.83;;;8.18;;
34988;SDS011;21192;40.182;44.516;2023-05-13T04:47:45;20.80;;;7.97;;
34988;SDS011;21192;40.182;44.516;2023-05-13T04:50:11;27.75;;;8.65;;
34988;SDS011;21192;40.182;44.516;2023-05-13T04:52:37;31.80;;;9.15;;
34988;SDS011;21192;40.182;44.516;2023-05-13T04:55:03;33.15;;;9.60;;
34988;SDS011;21192;40.182;44.516;2023-05-13T04:57:29;30.73;;;9.38;;
34988;SDS011;21192;40.182;44.516;2023-05-13T04:59:55;25.38;;;9.25;;
34988;SDS011;21192;40.182;44.516;2023-05-13T05:02:21;30.92;;;8.75;;
34988;SDS011;21192;40.182;44.516;2023-05-13T05:04:46;24.35;;;8.00;;
34988;SDS011;21192;40.182;44.516;2023-05-13T05:07:13;22.23;;;8.65;;
34988;SDS011;21192;40.182;44.516;2023-05-13T05:09:39;26.05;;;9.57;;
34988;SDS011;21192;40.182;44.516;2023-05-13T05:12:05;28.73;;;9.23;;
34988;SDS011;21192;40.182;44.516;2023-05-13T05:14:31;52.95;;;10.35;;
34988;SDS011;21192;40.182;44.516;2023-05-13T05:16:57;27.45;;;9.38;;
34988;SDS011;21192;40.182;44.516;2023-05-13T05:19:23;26.83;;;9.18;;
34988;SDS011;21192;40.182;44.516;2023-05-13T05:21:52;31.48;;;9.30;;
34988;SDS011;21192;40.182;44.516;2023-05-13T05:24:18;25.55;;;9.00;;
34988;SDS011;21192;40.182;44.516;2023-05-13T05:26:44;22.23;;;8.48;;
34988;SDS011;21192;40.182;44.516;2023-05-13T05:29:10;24.40;;;7.47;;
34988;SDS011;21192;40.182;44.516;2023-05-13T05:31:36;21.70;;;6.93;;
34988;SDS011;21192;40.182;44.516;2023-05-13T05:34:02;28.65;;;8.52;;
34988;SDS011;21192;40.182;44.516;2023-05-13T05:36:28;21.75;;;6.82;;
34988;SDS011;21192;40.182;44.516;2023-05-13T05:38:54;19.40;;;7.55;;
34988;SDS011;21192;40.182;44.516;2023-05-13T05:41:20;23.48;;;7.30;;
34988;SDS011;21192;40.182;44.516;2023-05-13T05:43:46;20.05;;;7.38;;
34988;SDS011;21192;40.182;44.516;2023-05-13T05:46:12;31.55;;;8.45;;
34988;SDS011;21192;40.182;44.516;2023-05-13T05:48:38;33.72;;;7.45;;
34988;SDS011;21192;40.182;44.516;2023-05-13T05:51:04;26.27;;;7.57;;
34988;SDS011;21192;40.182;44.516;2023-05-13T05:53:30;29.02;;;8.73;;
34988;SDS011;21192;40.182;44.516;2023-05-13T05:55:56;19.02;;;6.93;;
34988;SDS011;21192;40.182;44.516;2023-05-13T05:58:22;25.00;;;7.90;;
34988;SDS011;21192;40.182;44.516;2023-05-13T06:00:48;32.58;;;7.65;;
34988;SDS011;21192;40.182;44.516;2023-05-13T06:03:14;22.90;;;6.90;;
34988;SDS011;21192;40.182;44.516;2023-05-13T06:05:39;24.70;;;7.78;;
34988;SDS011;21192;40.182;44.516;2023-05-13T06:08:06;29.85;;;7.78;;
34988;SDS011;21192;40.182;44.516;2023-05-13T06:10:32;16.98;;;7.53;;
34988;SDS011;21192;40.182;44.516;2023-05-13T06:12:57;21.70;;;7.90;;
34988;SDS011;21192;40.182;44.516;2023-05-13T06:15:23;18.42;;;7.00;;
34988;SDS011;21192;40.182;44.516;2023-05-13T06:17:49;14.73;;;6.90;;
34988;SDS011;21192;40.182;44.516;2023-05-13T06:20:15;22.42;;;8.38;;
34988;SDS011;21192;40.182;44.516;2023-05-13T06:22:41;22.13;;;8.18;;
34988;SDS011;21192;40.182;44.516;2023-05-13T06:25:07;28.70;;;9.95;;
34988;SDS011;21192;40.182;44.516;2023-05-13T06:27:33;22.02;;;9.43;;
34988;SDS011;21192;40.182;44.516;2023-05-13T06:29:59;27.33;;;9.15;;
34988;SDS011;21192;40.182;44.516;2023-05-13T06:32:25;24.45;;;8.15;;
34988;SDS011;21192;40.182;44.516;2023-05-13T06:34:51;26.95;;;9.13;;
34988;SDS011;21192;40.182;44.516;2023-05-13T06:37:17;26.60;;;9.82;;
34988;SDS011;21192;40.182;44.516;2023-05-13T06:39:43;26.30;;;10.32;;
34988;SDS011;21192;40.182;44.516;2023-05-13T06:42:09;27.50;;;10.35;;
34988;SDS011;21192;40.182;44.516;2023-05-13T06:44:35;26.65;;;10.93;;
34988;SDS011;21192;40.182;44.516;2023-05-13T06:47:01;22.02;;;10.38;;
34988;SDS011;21192;40.182;44.516;2023-05-13T06:49:28;20.02;;;8.52;;
34988;SDS011;21192;40.182;44.516;2023-05-13T06:51:54;25.60;;;9.55;;
34988;SDS011;21192;40.182;44.516;2023-05-13T06:54:20;16.77;;;7.72;;
34988;SDS011;21192;40.182;44.516;2023-05-13T06:56:47;19.38;;;7.97;;
34988;SDS011;21192;40.182;44.516;2023-05-13T06:59:13;24.05;;;8.68;;
34988;SDS011;21192;40.182;44.516;2023-05-13T07:01:39;18.55;;;6.82;;
34988;SDS011;21192;40.182;44.516;2023-05-13T07:04:06;21.58;;;7.10;;
34988;SDS011;21192;40.182;44.516;2023-05-13T07:06:32;21.20;;;7.68;;
34988;SDS011;21192;40.182;44.516;2023-05-13T07:08:57;23.77;;;8.45;;
34988;SDS011;21192;40.182;44.516;2023-05-13T07:11:23;19.75;;;8.48;;
34988;SDS011;21192;40.182;44.516;2023-05-13T07:13:49;21.80;;;8.60;;
34988;SDS011;21192;40.182;44.516;2023-05-13T07:16:16;20.80;;;8.05;;
34988;SDS011;21192;40.182;44.516;2023-05-13T07:18:42;18.92;;;8.20;;
34988;SDS011;21192;40.182;44.516;2023-05-13T07:21:08;20.45;;;7.95;;
34988;SDS011;21192;40.182;44.516;2023-05-13T07:23:33;28.35;;;9.80;;
34988;SDS011;21192;40.182;44.516;2023-05-13T07:26:00;21.35;;;8.68;;
34988;SDS011;21192;40.182;44.516;2023-05-13T07:28:26;23.38;;;9.25;;
34988;SDS011;21192;40.182;44.516;2023-05-13T07:30:51;27.27;;;8.95;;
34988;SDS011;21192;40.182;44.516;2023-05-13T07:33:18;25.20;;;8.23;;
34988;SDS011;21192;40.182;44.516;2023-05-13T07:35:43;29.27;;;9.10;;
34988;SDS011;21192;40.182;44.516;2023-05-13T07:38:09;25.02;;;8.25;;
34988;SDS011;21192;40.182;44.516;2023-05-13T07:40:36;18.63;;;8.80;;
34988;SDS011;21192;40.182;44.516;2023-05-13T07:43:02;17.13;;;9.10;;
34988;SDS011;21192;40.182;44.516;2023-05-13T07:45:28;18.30;;;9.10;;
34988;SDS011;21192;40.182;44.516;2023-05-13T07:47:53;24.10;;;8.65;;
34988;SDS011;21192;40.182;44.516;2023-05-13T07:50:20;19.95;;;8.75;;
34988;SDS011;21192;40.182;44.516;2023-05-13T07:52:46;28.42;;;11.32;;
34988;SDS011;21192;40.182;44.516;2023-05-13T07:55:13;18.23;;;9.48;;
34988;SDS011;21192;40.182;44.516;2023-05-13T07:57:39;26.77;;;9.93;;
34988;SDS011;21192;40.182;44.516;2023-05-13T08:00:05;23.13;;;8.90;;
34988;SDS011;21192;40.182;44.516;2023-05-13T08:02:32;25.38;;;9.13;;
34988;SDS011;21192;40.182;44.516;2023-05-13T08:05:01;22.98;;;10.63;;
34988;SDS011;21192;40.182;44.516;2023-05-13T08:07:27;23.00;;;10.65;;
34988;SDS011;21192;40.182;44.516;2023-05-13T08:09:53;17.75;;;9.10;;
34988;SDS011;21192;40.182;44.516;2023-05-13T08:12:19;21.85;;;8.32;;
34988;SDS011;21192;40.182;44.516;2023-05-13T08:14:45;18.20;;;8.88;;
34988;SDS011;21192;40.182;44.516;2023-05-13T08:17:11;22.58;;;9.82;;
34988;SDS011;21192;40.182;44.516;2023-05-13T08:19:37;24.98;;;10.50;;
34988;SDS011;21192;40.182;44.516;2023-05-13T08:22:03;26.15;;;10.70;;
34988;SDS011;21192;40.182;44.516;2023-05-13T08:24:28;36.05;;;12.35;;
34988;SDS011;21192;40.182;44.516;2023-05-13T08:26:54;29.20;;;12.15;;
34988;SDS011;21192;40.182;44.516;2023-05-13T08:29:20;38.22;;;12.60;;
34988;SDS011;21192;40.182;44.516;2023-05-13T08:31:46;43.55;;;12.25;;
34988;SDS011;21192;40.182;44.516;2023-05-13T08:34:12;26.73;;;9.70;;
34988;SDS011;21192;40.182;44.516;2023-05-13T08:36:38;28.20;;;10.82;;
34988;SDS011;21192;40.182;44.516;2023-05-13T08:39:03;31.10;;;12.05;;
34988;SDS011;21192;40.182;44.516;2023-05-13T08:41:29;28.88;;;11.45;;
34988;SDS011;21192;40.182;44.516;2023-05-13T08:43:58;18.58;;;8.77;;
34988;SDS011;21192;40.182;44.516;2023-05-13T08:46:26;22.17;;;8.63;;
34988;SDS011;21192;40.182;44.516;2023-05-13T08:48:53;22.58;;;6.93;;
34988;SDS011;21192;40.182;44.516;2023-05-13T08:51:20;17.00;;;7.35;;
34988;SDS011;21192;40.182;44.516;2023-05-13T08:53:45;24.45;;;9.00;;
34988;SDS011;21192;40.182;44.516;2023-05-13T08:56:12;31.45;;;13.25;;
34988;SDS011;21192;40.182;44.516;2023-05-13T08:58:38;26.73;;;11.13;;
34988;SDS011;21192;40.182;44.516;2023-05-13T09:01:05;19.55;;;7.20;;
34988;SDS011;21192;40.182;44.516;2023-05-13T09:03:31;17.58;;;6.45;;
34988;SDS011;21192;40.182;44.516;2023-05-13T09:05:59;14.57;;;6.78;;
34988;SDS011;21192;40.182;44.516;2023-05-13T09:08:26;15.10;;;6.50;;
34988;SDS011;21192;40.182;44.516;2023-05-13T09:10:52;17.70;;;6.90;;
34988;SDS011;21192;40.182;44.516;2023-05-13T09:13:18;18.88;;;6.65;;
34988;SDS011;21192;40.182;44.516;2023-05-13T09:15:44;16.63;;;6.53;;
34988;SDS011;21192;40.182;44.516;2023-05-13T09:18:10;18.40;;;6.63;;
34988;SDS011;21192;40.182;44.516;2023-05-13T09:20:36;14.43;;;6.18;;
34988;SDS011;21192;40.182;44.516;2023-05-13T09:23:06;18.58;;;9.50;;
34988;SDS011;21192;40.182;44.516;2023-05-13T09:25:35;24.42;;;8.88;;
34988;SDS011;21192;40.182;44.516;2023-05-13T09:28:03;17.17;;;7.63;;
34988;SDS011;21192;40.182;44.516;2023-05-13T09:30:37;11.82;;;6.35;;
34988;SDS011;21192;40.182;44.516;2023-05-13T09:33:16;16.02;;;6.03;;
34988;SDS011;21192;40.182;44.516;2023-05-13T09:35:50;20.70;;;11.00;;
34988;SDS011;21192;40.182;44.516;2023-05-13T09:38:28;13.93;;;7.90;;
34988;SDS011;21192;40.182;44.516;2023-05-13T09:41:00;11.50;;;5.05;;
34988;SDS011;21192;40.182;44.516;2023-05-13T09:43:27;7.50;;;3.65;;
34988;SDS011;21192;40.182;44.516;2023-05-13T09:45:57;18.90;;;8.50;;
34988;SDS011;21192;40.182;44.516;2023-05-13T09:48:27;11.05;;;5.38;;
34988;SDS011;21192;40.182;44.516;2023-05-13T09:50:55;9.00;;;5.18;;
34988;SDS011;21192;40.182;44.516;2023-05-13T09:53:24;12.93;;;5.05;;
34988;SDS011;21192;40.182;44.516;2023-05-13T09:55:51;18.30;;;5.65;;
34988;SDS011;21192;40.182;44.516;2023-05-13T09:58:21;12.32;;;5.97;;
34988;SDS011;21192;40.182;44.516;2023-05-13T10:00:49;10.70;;;5.50;;
34988;SDS011;21192;40.182;44.516;2023-05-13T10:03:16;15.00;;;4.72;;
34988;SDS011;21192;40.182;44.516;2023-05-13T10:05:42;11.23;;;4.93;;
34988;SDS011;21192;40.182;44.516;2023-05-13T10:08:08;12.63;;;5.63;;
34988;SDS011;21192;40.182;44.516;2023-05-13T10:10:36;12.77;;;4.15;;
34988;SDS011;21192;40.182;44.516;2023-05-13T10:13:04;19.00;;;4.53;;
34988;SDS011;21192;40.182;44.516;2023-05-13T10:15:35;11.93;;;4.30;;
34988;SDS011;21192;40.182;44.516;2023-05-13T10:18:07;10.80;;;4.05;;
34988;SDS011;21192;40.182;44.516;2023-05-13T10:20:33;16.75;;;4.40;;
34988;SDS011;21192;40.182;44.516;2023-05-13T10:22:59;11.57;;;4.70;;
34988;SDS011;21192;40.182;44.516;2023-05-13T10:25:31;14.43;;;5.45;;
34988;SDS011;21192;40.182;44.516;2023-05-13T10:27:57;14.85;;;6.43;;
34988;SDS011;21192;40.182;44.516;2023-05-13T10:30:24;17.27;;;7.00;;
34988;SDS011;21192;40.182;44.516;2023-05-13T10:32:51;14.80;;;6.00;;
34988;SDS011;21192;40.182;44.516;2023-05-13T10:35:18;15.63;;;7.13;;
34988;SDS011;21192;40.182;44.516;2023-05-13T10:43:29;16.35;;;7.65;;
34988;SDS011;21192;40.182;44.516;2023-05-13T10:45:57;25.85;;;6.75;;
34988;SDS011;21192;40.182;44.516;2023-05-13T10:48:40;24.40;;;7.30;;
34988;SDS011;21192;40.182;44.516;2023-05-13T10:51:13;22.38;;;6.40;;
34988;SDS011;21192;40.182;44.516;2023-05-13T10:56:13;17.05;;;6.57;;
34988;SDS011;21192;40.182;44.516;2023-05-13T10:58:39;18.45;;;6.47;;
34988;SDS011;21192;40.182;44.516;2023-05-13T11:03:40;14.60;;;6.13;;
34988;SDS011;21192;40.182;44.516;2023-05-13T11:08:40;19.70;;;7.60;;
34988;SDS011;21192;40.182;44.516;2023-05-13T11:14:06;19.67;;;7.32;;
34988;SDS011;21192;40.182;44.516;2023-05-13T11:19:18;16.45;;;6.50;;
34988;SDS011;21192;40.182;44.516;2023-05-13T11:21:52;20.20;;;6.57;;
34988;SDS011;21192;40.182;44.516;2023-05-13T11:24:22;16.48;;;7.40;;
34988;SDS011;21192;40.182;44.516;2023-05-13T11:26:50;22.45;;;8.00;;
34988;SDS011;21192;40.182;44.516;2023-05-13T11:29:33;18.05;;;7.50;;
34988;SDS011;21192;40.182;44.516;2023-05-13T11:32:01;16.80;;;5.55;;
34988;SDS011;21192;40.182;44.516;2023-05-13T11:34:28;10.52;;;4.88;;
34988;SDS011;21192;40.182;44.516;2023-05-13T11:37:08;15.43;;;6.13;;
34988;SDS011;21192;40.182;44.516;2023-05-13T11:39:34;17.50;;;5.78;;
34988;SDS011;21192;40.182;44.516;2023-05-13T11:42:07;12.10;;;5.18;;
34988;SDS011;21192;40.182;44.516;2023-05-13T11:44:34;13.13;;;6.13;;
34988;SDS011;21192;40.182;44.516;2023-05-13T11:47:01;14.95;;;6.93;;
34988;SDS011;21192;40.182;44.516;2023-05-13T11:52:11;13.18;;;6.07;;
34988;SDS011;21192;40.182;44.516;2023-05-13T11:54:48;14.90;;;5.72;;
34988;SDS011;21192;40.182;44.516;2023-05-13T11:57:23;20.88;;;8.98;;
34988;SDS011;21192;40.182;44.516;2023-05-13T11:59:54;23.52;;;8.77;;
34988;SDS011;21192;40.182;44.516;2023-05-13T12:04:52;19.85;;;9.65;;
34988;SDS011;21192;40.182;44.516;2023-05-13T12:07:18;17.48;;;7.90;;
34988;SDS011;21192;40.182;44.516;2023-05-13T12:09:46;11.35;;;6.78;;
34988;SDS011;21192;40.182;44.516;2023-05-13T12:12:12;17.98;;;8.77;;
34988;SDS011;21192;40.182;44.516;2023-05-13T12:14:40;18.17;;;7.43;;
34988;SDS011;21192;40.182;44.516;2023-05-13T12:17:08;20.08;;;7.28;;
34988;SDS011;21192;40.182;44.516;2023-05-13T12:19:34;21.52;;;7.05;;
34988;SDS011;21192;40.182;44.516;2023-05-13T12:22:01;15.55;;;7.00;;
34988;SDS011;21192;40.182;44.516;2023-05-13T12:24:31;20.23;;;7.72;;
34988;SDS011;21192;40.182;44.516;2023-05-13T12:27:04;22.40;;;8.50;;
34988;SDS011;21192;40.182;44.516;2023-05-13T12:29:41;27.65;;;8.63;;
34988;SDS011;21192;40.182;44.516;2023-05-13T12:32:07;23.60;;;8.23;;
34988;SDS011;21192;40.182;44.516;2023-05-13T12:34:33;25.92;;;7.65;;
34988;SDS011;21192;40.182;44.516;2023-05-13T12:37:12;23.55;;;7.30;;
34988;SDS011;21192;40.182;44.516;2023-05-13T12:39:39;22.23;;;8.35;;
34988;SDS011;21192;40.182;44.516;2023-05-13T12:42:05;20.17;;;8.65;;
34988;SDS011;21192;40.182;44.516;2023-05-13T12:44:37;25.02;;;8.45;;
34988;SDS011;21192;40.182;44.516;2023-05-13T12:47:05;19.20;;;6.80;;
34988;SDS011;21192;40.182;44.516;2023-05-13T12:49:32;20.85;;;6.80;;
34988;SDS011;21192;40.182;44.516;2023-05-13T12:51:58;21.77;;;7.28;;
34988;SDS011;21192;40.182;44.516;2023-05-13T12:54:24;27.38;;;9.57;;
34988;SDS011;21192;40.182;44.516;2023-05-13T12:56:50;21.92;;;9.68;;
34988;SDS011;21192;40.182;44.516;2023-05-13T12:59:16;25.08;;;9.00;;
34988;SDS011;21192;40.182;44.516;2023-05-13T13:01:43;23.00;;;8.88;;
34988;SDS011;21192;40.182;44.516;2023-05-13T13:04:11;25.40;;;9.05;;
34988;SDS011;21192;40.182;44.516;2023-05-13T13:06:38;21.48;;;8.32;;
34988;SDS011;21192;40.182;44.516;2023-05-13T13:09:04;17.58;;;8.60;;
34988;SDS011;21192;40.182;44.516;2023-05-13T13:11:30;22.20;;;8.60;;
34988;SDS011;21192;40.182;44.516;2023-05-13T13:13:55;14.35;;;6.05;;
34988;SDS011;21192;40.182;44.516;2023-05-13T13:16:21;15.25;;;6.53;;
34988;SDS011;21192;40.182;44.516;2023-05-13T13:18:47;15.77;;;6.07;;
34988;SDS011;21192;40.182;44.516;2023-05-13T13:21:15;20.27;;;8.30;;
34988;SDS011;21192;40.182;44.516;2023-05-13T13:23:41;19.25;;;7.90;;
34988;SDS011;21192;40.182;44.516;2023-05-13T13:26:07;20.45;;;9.25;;
34988;SDS011;21192;40.182;44.516;2023-05-13T13:28:32;17.50;;;8.95;;
34988;SDS011;21192;40.182;44.516;2023-05-13T13:30:58;23.80;;;11.00;;
34988;SDS011;21192;40.182;44.516;2023-05-13T13:33:24;24.98;;;9.63;;
34988;SDS011;21192;40.182;44.516;2023-05-13T13:35:50;26.08;;;13.48;;
34988;SDS011;21192;40.182;44.516;2023-05-13T13:38:16;27.63;;;12.30;;
34988;SDS011;21192;40.182;44.516;2023-05-13T13:40:42;22.00;;;9.63;;
34988;SDS011;21192;40.182;44.516;2023-05-13T13:43:08;22.38;;;9.10;;
34988;SDS011;21192;40.182;44.516;2023-05-13T13:45:34;14.32;;;6.55;;
34988;SDS011;21192;40.182;44.516;2023-05-13T13:48:00;17.90;;;7.63;;
34988;SDS011;21192;40.182;44.516;2023-05-13T13:50:26;18.75;;;6.60;;
34988;SDS011;21192;40.182;44.516;2023-05-13T13:52:52;18.10;;;7.32;;
34988;SDS011;21192;40.182;44.516;2023-05-13T13:55:18;23.52;;;8.32;;
34988;SDS011;21192;40.182;44.516;2023-05-13T13:57:45;13.35;;;6.40;;
34988;SDS011;21192;40.182;44.516;2023-05-13T14:00:11;27.23;;;11.15;;
34988;SDS011;21192;40.182;44.516;2023-05-13T14:02:38;24.00;;;11.52;;
34988;SDS011;21192;40.182;44.516;2023-05-13T14:05:05;24.42;;;7.80;;
34988;SDS011;21192;40.182;44.516;2023-05-13T14:07:31;24.60;;;7.78;;
34988;SDS011;21192;40.182;44.516;2023-05-13T14:09:57;15.57;;;7.32;;
34988;SDS011;21192;40.182;44.516;2023-05-13T14:12:23;24.55;;;7.03;;
34988;SDS011;21192;40.182;44.516;2023-05-13T14:14:49;15.85;;;6.95;;
34988;SDS011;21192;40.182;44.516;2023-05-13T14:17:15;19.25;;;5.28;;
34988;SDS011;21192;40.182;44.516;2023-05-13T14:19:41;16.02;;;6.05;;
34988;SDS011;21192;40.182;44.516;2023-05-13T14:22:06;21.98;;;7.38;;
34988;SDS011;21192;40.182;44.516;2023-05-13T14:24:32;21.90;;;8.10;;
34988;SDS011;21192;40.182;44.516;2023-05-13T14:26:58;21.27;;;8.38;;
34988;SDS011;21192;40.182;44.516;2023-05-13T14:29:24;21.63;;;6.35;;
34988;SDS011;21192;40.182;44.516;2023-05-13T14:31:51;17.92;;;6.90;;
34988;SDS011;21192;40.182;44.516;2023-05-13T14:34:17;16.70;;;7.30;;
34988;SDS011;21192;40.182;44.516;2023-05-13T14:36:43;21.15;;;7.03;;
34988;SDS011;21192;40.182;44.516;2023-05-13T14:39:09;18.05;;;7.70;;
34988;SDS011;21192;40.182;44.516;2023-05-13T14:41:36;17.35;;;8.13;;
34988;SDS011;21192;40.182;44.516;2023-05-13T14:44:03;22.45;;;7.85;;
34988;SDS011;21192;40.182;44.516;2023-05-13T14:46:29;22.23;;;7.32;;
34988;SDS011;21192;40.182;44.516;2023-05-13T14:48:55;13.95;;;5.60;;
34988;SDS011;21192;40.182;44.516;2023-05-13T14:51:21;14.10;;;6.47;;